Terminal Aerodrome Forecast
Issued by NWS

Home | Current Version | Previous Version | Text Only | Print | Product List | Glossary On
Versions: 1 2 3 4 5 6 7 8 9 10 11 12 13 14 15 16
000
FTUS46 KPDT 201720
TAFYKM
TAF
KYKM 201720Z 2018/2118 25004KT P6SM SCT080 BKN200
     FM202000 25015G23KT P6SM SCT070
     FM210400 26011KT P6SM SCT120
     FM210900 26005KT P6SM -RA BKN080 OVC120=

USA.gov is the U.S. government's official web portal to all federal, state and local government web resources and services.